createdAt,value
2022-08-30T00:01:31.316Z,9.40
2022-08-30T00:04:00.784Z,9.98
2022-08-30T00:06:29.647Z,9.20
2022-08-30T00:08:57.344Z,8.68
2022-08-30T00:11:27.389Z,8.98
2022-08-30T00:13:56.231Z,7.75
2022-08-30T00:16:25.017Z,7.57
2022-08-30T00:18:52.497Z,7.32
2022-08-30T00:21:19.857Z,7.15
2022-08-30T00:23:47.367Z,9.98
2022-08-30T00:26:14.884Z,9.52
2022-08-30T00:28:42.223Z,10.60
2022-08-30T00:31:09.590Z,10.10
2022-08-30T00:33:37.459Z,10.30
2022-08-30T00:36:04.647Z,10.20
2022-08-30T00:38:32.349Z,9.60
2022-08-30T00:40:59.926Z,10.25
2022-08-30T00:43:30.565Z,9.63
2022-08-30T00:45:58.594Z,9.32
2022-08-30T00:48:26.329Z,8.65
2022-08-30T00:51:00.648Z,8.80
2022-08-30T00:53:32.365Z,8.65
2022-08-30T00:56:01.446Z,9.55
2022-08-30T00:58:32.756Z,10.00
2022-08-30T01:01:01.723Z,9.88
2022-08-30T01:03:30.625Z,9.70
2022-08-30T01:05:59.101Z,9.40
2022-08-30T01:08:27.550Z,9.40
2022-08-30T01:10:56.726Z,8.63
2022-08-30T01:13:25.568Z,9.32
2022-08-30T01:15:53.603Z,8.82
2022-08-30T01:18:22.255Z,8.57
2022-08-30T01:21:10.387Z,8.57
2022-08-30T01:23:41.189Z,9.45
2022-08-30T01:26:10.498Z,10.60
2022-08-30T01:28:39.977Z,10.13
2022-08-30T01:31:08.338Z,11.95
2022-08-30T01:33:38.448Z,10.55
2022-08-30T01:36:11.519Z,12.10
2022-08-30T01:38:49.573Z,12.02
2022-08-30T01:41:26.917Z,11.43
2022-08-30T01:43:56.984Z,12.13
2022-08-30T01:46:28.188Z,11.15
2022-08-30T01:48:58.060Z,10.43
2022-08-30T01:51:27.468Z,10.68
2022-08-30T01:53:57.140Z,9.70
2022-08-30T01:56:27.699Z,9.55
2022-08-30T01:59:00.451Z,10.45
2022-08-30T02:01:33.018Z,9.57
2022-08-30T02:04:00.941Z,9.20
2022-08-30T02:06:28.521Z,9.15
2022-08-30T02:08:55.985Z,8.95
2022-08-30T02:11:23.485Z,8.88
2022-08-30T02:13:51.024Z,8.75
2022-08-30T02:16:23.158Z,8.90
2022-08-30T02:18:53.285Z,8.57
2022-08-30T02:21:21.448Z,8.13
2022-08-30T02:23:48.948Z,9.25
2022-08-30T02:26:16.614Z,8.80
2022-08-30T02:28:49.591Z,9.45
2022-08-30T02:31:20.610Z,9.38
2022-08-30T02:33:50.895Z,9.25
2022-08-30T02:36:20.947Z,9.10
2022-08-30T02:38:51.722Z,8.43
2022-08-30T02:41:19.913Z,8.98
2022-08-30T02:43:48.267Z,8.70
2022-08-30T02:46:17.432Z,9.77
2022-08-30T02:48:45.120Z,9.45
2022-08-30T02:51:14.359Z,9.30
2022-08-30T02:53:45.456Z,8.75
2022-08-30T02:56:14.405Z,8.68
2022-08-30T02:58:42.844Z,9.10
2022-08-30T03:01:13.841Z,8.93
2022-08-30T03:03:43.144Z,9.43
2022-08-30T03:06:13.756Z,9.32
2022-08-30T03:08:41.637Z,9.18
2022-08-30T03:11:09.478Z,9.15
2022-08-30T03:13:36.994Z,8.13
2022-08-30T03:16:04.463Z,9.15
2022-08-30T03:18:31.780Z,8.40
2022-08-30T03:20:59.061Z,8.93
2022-08-30T03:23:26.326Z,8.20
2022-08-30T03:25:53.650Z,7.90
2022-08-30T03:28:21.310Z,8.75
2022-08-30T03:30:48.914Z,8.52
2022-08-30T03:33:16.394Z,7.82
2022-08-30T03:35:45.909Z,8.90
2022-08-30T03:38:13.328Z,9.00
2022-08-30T03:40:40.536Z,8.75
2022-08-30T03:43:08.123Z,8.45
2022-08-30T03:45:35.577Z,8.57
2022-08-30T03:48:03.176Z,8.30
2022-08-30T03:50:30.839Z,8.77
2022-08-30T03:52:58.859Z,8.40
2022-08-30T03:55:28.307Z,8.02
2022-08-30T03:57:55.660Z,8.48
2022-08-30T04:00:23.736Z,7.95
2022-08-30T04:02:51.074Z,9.23
2022-08-30T04:05:18.570Z,8.43
2022-08-30T04:07:46.494Z,9.05
2022-08-30T04:10:14.084Z,8.18
2022-08-30T04:12:43.262Z,8.65
2022-08-30T04:15:14.184Z,8.82
2022-08-30T04:17:41.582Z,8.90
2022-08-30T04:20:09.504Z,8.00
2022-08-30T04:22:40.067Z,8.25
2022-08-30T04:25:08.103Z,7.90
2022-08-30T04:27:44.210Z,7.60
2022-08-30T04:30:16.853Z,7.82
2022-08-30T04:32:45.342Z,8.07
2022-08-30T04:35:13.947Z,7.97
2022-08-30T04:37:41.294Z,7.50
2022-08-30T04:40:10.245Z,6.85
2022-08-30T04:42:38.280Z,6.75
2022-08-30T04:45:09.341Z,6.88
2022-08-30T04:47:37.688Z,6.95
2022-08-30T04:50:06.326Z,7.22
2022-08-30T04:52:33.930Z,7.30
2022-08-30T04:55:01.361Z,7.88
2022-08-30T04:57:30.625Z,7.10
2022-08-30T04:59:58.323Z,7.80
2022-08-30T05:02:25.633Z,7.47
2022-08-30T05:05:11.526Z,7.15
2022-08-30T05:07:41.716Z,7.18
2022-08-30T05:10:11.456Z,7.63
2022-08-30T05:12:40.503Z,8.32
2022-08-30T05:15:08.699Z,7.18
2022-08-30T05:17:37.881Z,7.10
2022-08-30T05:20:10.133Z,7.55
2022-08-30T05:22:40.129Z,7.28
2022-08-30T05:25:08.917Z,8.02
2022-08-30T05:27:37.684Z,8.25
2022-08-30T05:30:06.513Z,9.00
2022-08-30T05:32:33.754Z,8.45
2022-08-30T05:35:01.043Z,8.43
2022-08-30T05:37:28.410Z,8.40
2022-08-30T05:39:56.705Z,7.68
2022-08-30T05:42:23.931Z,7.93
2022-08-30T05:44:52.901Z,7.50
2022-08-30T05:47:21.626Z,7.88
2022-08-30T05:49:49.051Z,6.82
2022-08-30T05:52:18.360Z,8.68
2022-08-30T05:54:52.501Z,8.40
2022-08-30T05:57:20.192Z,7.50
2022-08-30T05:59:47.931Z,8.43
2022-08-30T06:02:15.245Z,8.00
2022-08-30T06:04:42.747Z,7.45
2022-08-30T06:07:13.008Z,7.15
2022-08-30T06:09:42.836Z,7.53
2022-08-30T06:12:10.268Z,7.60
2022-08-30T06:14:39.557Z,7.53
2022-08-30T06:17:07.608Z,6.90
2022-08-30T06:19:34.910Z,7.43
2022-08-30T06:22:02.362Z,7.30
2022-08-30T06:24:53.576Z,8.38
2022-08-30T06:27:17.155Z,7.47
2022-08-30T06:29:44.306Z,7.65
2022-08-30T06:32:11.719Z,7.93
2022-08-30T06:34:39.382Z,7.38
2022-08-30T06:37:06.492Z,7.65
2022-08-30T06:39:33.689Z,7.47
2022-08-30T06:42:00.955Z,7.55
2022-08-30T06:44:28.872Z,7.25
2022-08-30T06:46:57.554Z,7.63
2022-08-30T06:49:25.068Z,7.50
2022-08-30T06:51:54.295Z,7.53
2022-08-30T06:54:21.493Z,8.18
2022-08-30T06:56:58.093Z,6.55
2022-08-30T06:59:27.294Z,7.45
2022-08-30T07:01:56.722Z,7.90
2022-08-30T07:04:25.839Z,7.25
2022-08-30T07:06:53.617Z,7.72
2022-08-30T07:09:22.895Z,7.90
2022-08-30T07:11:51.304Z,7.35
2022-08-30T07:14:18.855Z,7.65
2022-08-30T07:16:46.348Z,7.20
2022-08-30T07:19:20.514Z,6.63
2022-08-30T07:21:50.037Z,7.05
2022-08-30T07:24:18.203Z,7.05
2022-08-30T07:26:52.066Z,6.93
2022-08-30T07:31:46.678Z,7.32
2022-08-30T07:34:14.001Z,8.00
2022-08-30T07:36:41.116Z,8.77
2022-08-30T07:39:08.484Z,8.68
2022-08-30T07:41:39.150Z,7.50
2022-08-30T07:44:09.722Z,7.57
2022-08-30T07:46:41.019Z,8.40
2022-08-30T07:49:11.317Z,7.13
2022-08-30T07:51:39.678Z,7.63
2022-08-30T07:54:07.243Z,7.38
2022-08-30T07:56:35.493Z,6.55
2022-08-30T07:59:02.708Z,6.80
2022-08-30T08:01:30.130Z,6.72
2022-08-30T08:03:57.644Z,6.82
2022-08-30T08:06:25.375Z,5.97
2022-08-30T08:08:53.826Z,5.90
2022-08-30T08:11:29.343Z,6.03
2022-08-30T08:13:59.032Z,6.60
2022-08-30T08:16:29.256Z,6.15
2022-08-30T08:18:57.267Z,5.65
2022-08-30T08:21:26.316Z,6.72
2022-08-30T08:23:54.047Z,6.50
2022-08-30T08:26:22.371Z,5.85
2022-08-30T08:28:49.855Z,6.35
2022-08-30T08:31:21.560Z,6.05
2022-08-30T08:33:51.916Z,6.40
2022-08-30T08:36:19.274Z,6.65
2022-08-30T08:38:46.815Z,6.57
2022-08-30T08:41:43.616Z,6.72
2022-08-30T08:44:42.100Z,6.13
2022-08-30T08:47:37.781Z,6.00
2022-08-30T08:50:19.563Z,5.90
2022-08-30T08:53:46.094Z,5.90
2022-08-30T08:56:18.219Z,5.90
2022-08-30T08:58:47.619Z,5.53
2022-08-30T09:01:18.560Z,4.93
2022-08-30T09:03:46.462Z,5.68
2022-08-30T09:06:45.055Z,5.57
2022-08-30T09:09:14.094Z,5.68
2022-08-30T09:11:44.317Z,5.50
2022-08-30T09:14:33.625Z,5.35
2022-08-30T09:17:05.878Z,5.13
2022-08-30T09:19:45.534Z,5.68
2022-08-30T09:22:35.814Z,6.00
2022-08-30T09:25:11.182Z,5.25
2022-08-30T09:27:44.378Z,4.93
2022-08-30T09:30:17.845Z,5.03
2022-08-30T09:32:57.617Z,5.00
2022-08-30T09:35:26.648Z,4.80
2022-08-30T09:37:54.186Z,5.38
2022-08-30T09:40:27.064Z,5.53
2022-08-30T09:43:05.570Z,5.72
2022-08-30T09:45:36.812Z,4.88
2022-08-30T09:48:33.118Z,4.43
2022-08-30T09:51:13.176Z,5.47
2022-08-30T09:54:18.521Z,4.88
2022-08-30T09:57:12.587Z,5.25
2022-08-30T09:59:40.324Z,4.93
2022-08-30T10:02:28.798Z,4.65
2022-08-30T10:05:14.450Z,4.97
2022-08-30T10:10:45.997Z,5.22
2022-08-30T10:13:30.367Z,5.05
2022-08-30T10:16:13.514Z,5.70
2022-08-30T10:19:09.678Z,4.82
2022-08-30T10:21:49.192Z,4.78
2022-08-30T10:24:21.167Z,5.00
2022-08-30T10:27:16.328Z,5.03
2022-08-30T10:29:51.607Z,4.80
2022-08-30T10:32:32.781Z,4.45
2022-08-30T10:35:16.321Z,4.60
2022-08-30T10:38:03.348Z,4.50
2022-08-30T10:40:56.757Z,5.20
2022-08-30T10:43:32.347Z,4.63
2022-08-30T10:46:05.930Z,4.90
2022-08-30T10:48:44.474Z,4.88
2022-08-30T10:51:40.416Z,4.90
2022-08-30T10:54:10.638Z,5.25
2022-08-30T10:56:43.235Z,4.88
2022-08-30T11:02:17.173Z,5.05
2022-08-30T11:05:26.521Z,4.60
2022-08-30T11:08:24.617Z,4.40
2022-08-30T11:11:13.224Z,4.40
2022-08-30T11:13:42.204Z,5.00
2022-08-30T11:16:15.944Z,5.53
2022-08-30T11:18:52.993Z,4.72
2022-08-30T11:21:39.560Z,4.38
2022-08-30T11:24:12.006Z,5.10
2022-08-30T11:26:45.640Z,5.00
2022-08-30T11:29:55.116Z,4.60
2022-08-30T11:32:45.405Z,4.22
2022-08-30T11:35:48.612Z,4.38
2022-08-30T11:38:25.699Z,4.55
2022-08-30T11:40:56.373Z,4.53
2022-08-30T11:43:37.246Z,4.20
2022-08-30T11:46:29.101Z,4.72
2022-08-30T11:49:23.341Z,4.40
2022-08-30T11:52:27.480Z,4.45
2022-08-30T11:55:04.169Z,4.53
2022-08-30T11:57:59.055Z,4.10
2022-08-30T12:00:34.185Z,3.83
2022-08-30T12:03:27.494Z,3.95
2022-08-30T12:05:59.992Z,4.20
2022-08-30T12:08:36.225Z,3.95
2022-08-30T12:11:12.436Z,4.20
2022-08-30T12:13:42.737Z,4.20
2022-08-30T12:16:22.279Z,3.90
2022-08-30T12:18:52.519Z,4.13
2022-08-30T12:21:22.745Z,4.07
2022-08-30T12:24:26.369Z,4.55
2022-08-30T12:26:54.796Z,4.30
2022-08-30T12:29:30.974Z,4.07
2022-08-30T12:32:19.438Z,4.10
2022-08-30T12:34:46.821Z,3.80
2022-08-30T12:37:27.604Z,4.15
2022-08-30T12:40:09.958Z,4.13
2022-08-30T12:42:49.627Z,3.88
2022-08-30T12:45:23.746Z,4.40
2022-08-30T12:48:14.155Z,4.40
2022-08-30T12:50:53.752Z,4.35
2022-08-30T12:53:32.540Z,3.83
2022-08-30T12:56:03.093Z,4.00
2022-08-30T12:58:52.773Z,4.55
2022-08-30T13:01:28.898Z,4.43
2022-08-30T13:04:02.637Z,4.43
2022-08-30T13:06:37.660Z,4.28
2022-08-30T13:09:05.053Z,4.20
2022-08-30T13:11:32.301Z,4.20
2022-08-30T13:14:33.538Z,4.35
2022-08-30T13:17:11.952Z,3.90
2022-08-30T13:19:43.910Z,4.43
2022-08-30T13:22:28.273Z,4.10
2022-08-30T13:24:56.620Z,4.18
2022-08-30T13:27:24.934Z,3.97
2022-08-30T13:29:52.795Z,4.03
2022-08-30T13:32:20.953Z,4.07
2022-08-30T13:34:48.676Z,3.90
2022-08-30T13:40:12.701Z,4.28
2022-08-30T13:42:43.177Z,3.70
2022-08-30T13:48:03.103Z,4.05
2022-08-30T13:50:31.495Z,4.28
2022-08-30T13:52:58.762Z,3.80
2022-08-30T13:55:27.721Z,4.00
2022-08-30T13:57:56.309Z,4.20
2022-08-30T14:00:25.280Z,3.70
2022-08-30T14:02:57.577Z,3.97
2022-08-30T14:05:48.350Z,3.80
2022-08-30T14:11:09.721Z,3.55
2022-08-30T14:13:37.442Z,4.00
2022-08-30T14:18:56.380Z,4.07
2022-08-30T14:21:24.670Z,3.65
2022-08-30T14:23:53.710Z,3.92
2022-08-30T14:26:24.391Z,4.10
2022-08-30T14:28:53.550Z,3.78
2022-08-30T14:31:21.206Z,3.63
2022-08-30T14:33:49.019Z,3.70
2022-08-30T14:36:17.314Z,3.75
2022-08-30T14:38:45.377Z,4.25
2022-08-30T14:41:12.902Z,3.70
2022-08-30T14:43:42.939Z,3.80
2022-08-30T14:46:11.224Z,3.75
2022-08-30T14:48:39.236Z,4.10
2022-08-30T14:51:18.745Z,3.95
2022-08-30T14:53:47.770Z,4.32
2022-08-30T14:56:19.780Z,4.40
2022-08-30T14:58:52.152Z,4.18
2022-08-30T15:01:20.829Z,4.00
2022-08-30T15:03:48.270Z,4.10
2022-08-30T15:06:15.934Z,4.15
2022-08-30T15:08:43.659Z,4.18
2022-08-30T15:11:17.343Z,4.97
2022-08-30T15:13:44.983Z,4.97
2022-08-30T15:16:23.529Z,4.28
2022-08-30T15:18:51.899Z,4.65
2022-08-30T15:21:28.123Z,4.30
2022-08-30T15:23:55.855Z,4.38
2022-08-30T15:26:24.296Z,4.45
2022-08-30T15:28:52.195Z,4.65
2022-08-30T15:31:21.681Z,4.50
2022-08-30T15:33:50.624Z,4.50
2022-08-30T15:36:18.048Z,4.90
2022-08-30T15:38:45.387Z,4.57
2022-08-30T15:41:13.381Z,4.30
2022-08-30T15:43:43.921Z,4.88
2022-08-30T15:46:30.071Z,4.70
2022-08-30T15:49:19.428Z,4.78
2022-08-30T15:51:48.962Z,4.72
2022-08-30T15:54:22.321Z,4.65
2022-08-30T15:56:49.713Z,4.70
2022-08-30T15:59:18.565Z,4.75
2022-08-30T16:01:47.735Z,4.88
2022-08-30T16:04:18.478Z,5.00
2022-08-30T16:06:46.884Z,4.43
2022-08-30T16:09:14.372Z,4.70
2022-08-30T16:11:42.020Z,4.78
2022-08-30T16:14:09.699Z,5.00
2022-08-30T16:16:39.940Z,5.30
2022-08-30T16:19:09.824Z,5.28
2022-08-30T16:21:38.154Z,4.85
2022-08-30T16:24:07.611Z,4.80
2022-08-30T16:26:38.110Z,5.78
2022-08-30T16:29:08.837Z,5.20
2022-08-30T16:31:36.872Z,5.40
2022-08-30T16:34:05.485Z,5.25
2022-08-30T16:36:36.058Z,5.40
2022-08-30T16:39:08.373Z,5.40
2022-08-30T16:41:37.535Z,5.22
2022-08-30T16:44:06.432Z,5.60
2022-08-30T16:46:34.910Z,5.40
2022-08-30T16:49:02.908Z,5.40
2022-08-30T16:51:32.080Z,5.15
2022-08-30T16:54:01.924Z,5.20
2022-08-30T16:56:31.809Z,5.53
2022-08-30T16:59:02.463Z,5.40
2022-08-30T17:01:35.497Z,5.70
2022-08-30T17:04:04.580Z,4.90
2022-08-30T17:06:33.092Z,5.22
2022-08-30T17:09:05.709Z,5.63
2022-08-30T17:11:34.400Z,5.43
2022-08-30T17:14:02.421Z,5.53
2022-08-30T17:16:30.398Z,5.40
2022-08-30T17:19:00.507Z,5.88
2022-08-30T17:21:30.253Z,5.50
2022-08-30T17:24:02.316Z,5.45
2022-08-30T17:26:36.684Z,5.35
2022-08-30T17:29:05.096Z,5.18
2022-08-30T17:31:33.026Z,5.13
2022-08-30T17:34:03.174Z,5.63
2022-08-30T17:36:35.415Z,5.13
2022-08-30T17:39:11.338Z,5.00
2022-08-30T17:41:49.149Z,5.20
2022-08-30T17:44:29.120Z,5.45
2022-08-30T17:46:59.563Z,5.25
2022-08-30T17:49:29.404Z,5.60
2022-08-30T17:51:57.372Z,5.90
2022-08-30T17:54:27.737Z,6.20
2022-08-30T17:56:55.947Z,5.80
2022-08-30T17:59:25.247Z,5.45
2022-08-30T18:01:55.151Z,5.50
2022-08-30T18:04:24.659Z,5.43
2022-08-30T18:06:52.986Z,5.40
2022-08-30T18:09:20.545Z,5.55
2022-08-30T18:11:48.232Z,5.45
2022-08-30T18:14:16.609Z,5.72
2022-08-30T18:19:32.328Z,5.72
2022-08-30T18:22:03.161Z,5.43
2022-08-30T18:24:30.985Z,5.15
2022-08-30T18:27:01.809Z,5.70
2022-08-30T18:29:31.743Z,5.25
2022-08-30T18:32:02.278Z,5.20
2022-08-30T18:34:30.202Z,5.10
2022-08-30T18:36:57.992Z,5.35
2022-08-30T18:39:26.243Z,5.60
2022-08-30T18:41:54.656Z,6.18
2022-08-30T18:44:33.305Z,5.35
2022-08-30T18:47:06.299Z,5.45
2022-08-30T18:49:35.201Z,5.60
2022-08-30T18:52:06.646Z,5.50
2022-08-30T18:54:38.485Z,5.47
2022-08-30T18:57:06.296Z,5.63
2022-08-30T18:59:35.364Z,5.43
2022-08-30T19:02:07.067Z,5.68
2022-08-30T19:04:37.703Z,5.82
2022-08-30T19:07:07.533Z,5.78
2022-08-30T19:09:35.264Z,6.00
2022-08-30T19:12:03.854Z,5.65
2022-08-30T19:14:37.059Z,5.72
2022-08-30T19:17:06.858Z,5.25
2022-08-30T19:19:38.679Z,5.40
2022-08-30T19:22:15.847Z,6.10
2022-08-30T19:24:43.489Z,5.80
2022-08-30T19:27:10.899Z,5.78
2022-08-30T19:29:39.552Z,5.80
2022-08-30T19:32:06.921Z,5.70
2022-08-30T19:34:37.681Z,5.75
2022-08-30T19:37:04.989Z,5.80
2022-08-30T19:39:32.201Z,5.65
2022-08-30T19:41:59.819Z,5.43
2022-08-30T19:44:27.630Z,6.00
2022-08-30T19:46:55.130Z,5.80
2022-08-30T19:49:23.819Z,6.25
2022-08-30T19:51:51.031Z,5.72
2022-08-30T19:54:20.171Z,5.70
2022-08-30T19:56:48.102Z,5.60
2022-08-30T19:59:17.618Z,5.10
2022-08-30T20:01:45.805Z,5.57
2022-08-30T20:04:14.178Z,5.20
2022-08-30T20:06:43.137Z,5.85
2022-08-30T20:09:12.214Z,5.65
2022-08-30T20:11:39.757Z,6.35
2022-08-30T20:14:07.182Z,6.68
2022-08-30T20:16:37.950Z,6.40
2022-08-30T20:19:06.801Z,6.50
2022-08-30T20:21:35.910Z,6.80
2022-08-30T20:24:04.340Z,6.60
2022-08-30T20:26:39.157Z,6.35
2022-08-30T20:29:07.660Z,6.88
2022-08-30T20:31:36.253Z,6.80
2022-08-30T20:34:04.977Z,6.72
2022-08-30T20:36:33.851Z,6.78
2022-08-30T20:39:02.342Z,7.18
2022-08-30T20:41:30.794Z,6.70
2022-08-30T20:43:58.501Z,6.45
2022-08-30T20:46:27.031Z,6.28
2022-08-30T20:48:56.864Z,6.63
2022-08-30T20:51:24.251Z,6.78
2022-08-30T20:53:51.800Z,6.13
2022-08-30T20:56:22.261Z,6.90
2022-08-30T20:58:50.460Z,6.65
2022-08-30T21:01:18.240Z,6.78
2022-08-30T21:03:49.455Z,6.38
2022-08-30T21:06:17.662Z,6.70
2022-08-30T21:08:44.895Z,7.03
2022-08-30T21:11:12.517Z,6.70
2022-08-30T21:13:39.773Z,6.45
2022-08-30T21:16:07.338Z,7.35
2022-08-30T21:18:36.228Z,7.05
2022-08-30T21:21:16.238Z,6.22
2022-08-30T21:23:43.595Z,6.93
2022-08-30T21:26:11.157Z,6.40
2022-08-30T21:28:40.039Z,6.20
2022-08-30T21:31:11.127Z,6.72
2022-08-30T21:33:39.490Z,6.70
2022-08-30T21:36:26.784Z,7.15
2022-08-30T21:38:57.589Z,6.90
2022-08-30T21:41:30.273Z,7.10
2022-08-30T21:44:03.565Z,7.22
2022-08-30T21:46:33.237Z,7.18
2022-08-30T21:49:02.811Z,6.63
2022-08-30T21:51:33.523Z,7.00
2022-08-30T21:54:02.492Z,6.60
2022-08-30T21:56:30.684Z,6.90
2022-08-30T21:58:58.636Z,7.53
2022-08-30T22:01:28.885Z,7.38
2022-08-30T22:03:59.338Z,7.35
2022-08-30T22:06:30.747Z,7.35
2022-08-30T22:09:01.241Z,7.70
2022-08-30T22:11:32.655Z,7.32
2022-08-30T22:14:02.271Z,7.05
2022-08-30T22:16:29.979Z,6.63
2022-08-30T22:18:57.722Z,6.88
2022-08-30T22:21:27.605Z,6.68
2022-08-30T22:23:55.727Z,6.63
2022-08-30T22:26:24.544Z,6.57
2022-08-30T22:28:53.870Z,6.63
2022-08-30T22:31:22.341Z,7.07
2022-08-30T22:33:50.485Z,6.40
2022-08-30T22:36:22.640Z,6.53
2022-08-30T22:38:52.772Z,6.40
2022-08-30T22:41:21.194Z,6.57
2022-08-30T22:43:53.800Z,6.25
2022-08-30T22:46:29.617Z,6.80
2022-08-30T22:49:04.940Z,6.72
2022-08-30T22:51:33.310Z,6.65
2022-08-30T22:54:01.409Z,7.20
2022-08-30T22:56:29.748Z,7.18
2022-08-30T22:58:57.299Z,6.85
2022-08-30T23:01:29.259Z,6.63
2022-08-30T23:03:58.472Z,7.10
2022-08-30T23:06:26.133Z,7.25
2022-08-30T23:08:53.589Z,7.47
2022-08-30T23:11:21.831Z,6.53
2022-08-30T23:13:49.049Z,7.32
2022-08-30T23:16:16.794Z,7.38
2022-08-30T23:18:45.793Z,7.40
2022-08-30T23:21:23.070Z,6.95
2022-08-30T23:24:12.347Z,7.00
2022-08-30T23:26:59.318Z,7.65
2022-08-30T23:29:45.634Z,7.78
2022-08-30T23:32:31.712Z,7.05
2022-08-30T23:35:18.504Z,7.45
2022-08-30T23:38:06.605Z,7.88
2022-08-30T23:40:52.361Z,7.72
2022-08-30T23:43:38.301Z,7.22
2022-08-30T23:46:24.497Z,7.35
2022-08-30T23:49:10.205Z,7.70
2022-08-30T23:51:57.486Z,8.85
2022-08-30T23:54:43.649Z,8.85
2022-08-30T23:57:29.550Z,8.50
